sensor_id;sensor_type;location;lat;lon;timestamp;P1;durP1;ratioP1;P2;durP2;ratioP2
33858;SDS011;20156;47.486;12.074;2023-06-01T00:02:25;6.90;;;6.10;;
33858;SDS011;20156;47.486;12.074;2023-06-01T00:04:51;6.05;;;5.45;;
33858;SDS011;20156;47.486;12.074;2023-06-01T00:07:17;5.95;;;5.30;;
33858;SDS011;20156;47.486;12.074;2023-06-01T00:09:42;9.95;;;6.70;;
33858;SDS011;20156;47.486;12.074;2023-06-01T00:12:08;9.82;;;5.85;;
33858;SDS011;20156;47.486;12.074;2023-06-01T00:14:34;8.85;;;7.28;;
33858;SDS011;20156;47.486;12.074;2023-06-01T00:16:59;8.07;;;6.53;;
33858;SDS011;20156;47.486;12.074;2023-06-01T00:19:25;6.95;;;5.60;;
33858;SDS011;20156;47.486;12.074;2023-06-01T00:21:52;8.10;;;5.97;;
33858;SDS011;20156;47.486;12.074;2023-06-01T00:24:19;10.02;;;6.32;;
33858;SDS011;20156;47.486;12.074;2023-06-01T00:26:45;6.22;;;5.60;;
33858;SDS011;20156;47.486;12.074;2023-06-01T00:29:11;7.03;;;5.95;;
33858;SDS011;20156;47.486;12.074;2023-06-01T00:31:37;6.80;;;6.18;;
33858;SDS011;20156;47.486;12.074;2023-06-01T00:34:03;5.43;;;4.93;;
33858;SDS011;20156;47.486;12.074;2023-06-01T00:36:28;6.63;;;5.72;;
33858;SDS011;20156;47.486;12.074;2023-06-01T00:38:54;6.95;;;5.45;;
33858;SDS011;20156;47.486;12.074;2023-06-01T00:41:26;7.07;;;5.72;;
33858;SDS011;20156;47.486;12.074;2023-06-01T00:43:52;6.85;;;5.68;;
33858;SDS011;20156;47.486;12.074;2023-06-01T00:46:17;6.55;;;5.95;;
33858;SDS011;20156;47.486;12.074;2023-06-01T00:48:43;7.85;;;7.00;;
33858;SDS011;20156;47.486;12.074;2023-06-01T00:51:08;7.78;;;6.38;;
33858;SDS011;20156;47.486;12.074;2023-06-01T00:53:34;6.38;;;5.30;;
33858;SDS011;20156;47.486;12.074;2023-06-01T00:56:00;7.55;;;5.85;;
33858;SDS011;20156;47.486;12.074;2023-06-01T00:58:25;5.20;;;4.70;;
33858;SDS011;20156;47.486;12.074;2023-06-01T01:00:51;7.95;;;5.82;;
33858;SDS011;20156;47.486;12.074;2023-06-01T01:03:18;6.50;;;5.10;;
33858;SDS011;20156;47.486;12.074;2023-06-01T01:05:46;6.72;;;5.55;;
33858;SDS011;20156;47.486;12.074;2023-06-01T01:08:30;6.28;;;5.03;;
33858;SDS011;20156;47.486;12.074;2023-06-01T01:13:52;6.20;;;5.60;;
33858;SDS011;20156;47.486;12.074;2023-06-01T01:16:28;6.85;;;5.40;;
33858;SDS011;20156;47.486;12.074;2023-06-01T01:22:01;6.75;;;5.80;;
33858;SDS011;20156;47.486;12.074;2023-06-01T01:29:54;8.48;;;6.47;;
33858;SDS011;20156;47.486;12.074;2023-06-01T01:32:23;7.65;;;6.82;;
33858;SDS011;20156;47.486;12.074;2023-06-01T01:34:50;12.27;;;6.47;;
33858;SDS011;20156;47.486;12.074;2023-06-01T01:37:17;6.45;;;5.25;;
33858;SDS011;20156;47.486;12.074;2023-06-01T01:39:42;6.30;;;5.15;;
33858;SDS011;20156;47.486;12.074;2023-06-01T01:42:08;7.28;;;5.88;;
33858;SDS011;20156;47.486;12.074;2023-06-01T01:44:33;7.15;;;5.85;;
33858;SDS011;20156;47.486;12.074;2023-06-01T01:47:03;7.88;;;6.25;;
33858;SDS011;20156;47.486;12.074;2023-06-01T01:49:44;8.02;;;6.00;;
33858;SDS011;20156;47.486;12.074;2023-06-01T01:54:45;5.72;;;5.10;;
33858;SDS011;20156;47.486;12.074;2023-06-01T01:57:13;7.10;;;6.40;;
33858;SDS011;20156;47.486;12.074;2023-06-01T01:59:39;7.22;;;6.53;;
33858;SDS011;20156;47.486;12.074;2023-06-01T02:02:06;10.23;;;7.28;;
33858;SDS011;20156;47.486;12.074;2023-06-01T02:04:32;7.75;;;6.72;;
33858;SDS011;20156;47.486;12.074;2023-06-01T02:06:57;8.23;;;6.18;;
33858;SDS011;20156;47.486;12.074;2023-06-01T02:09:23;7.30;;;5.57;;
33858;SDS011;20156;47.486;12.074;2023-06-01T02:11:48;11.60;;;7.38;;
33858;SDS011;20156;47.486;12.074;2023-06-01T02:14:14;8.82;;;7.20;;
33858;SDS011;20156;47.486;12.074;2023-06-01T02:16:39;8.38;;;6.97;;
33858;SDS011;20156;47.486;12.074;2023-06-01T02:19:04;8.25;;;7.38;;
33858;SDS011;20156;47.486;12.074;2023-06-01T02:21:30;7.55;;;6.47;;
33858;SDS011;20156;47.486;12.074;2023-06-01T02:23:56;7.78;;;6.38;;
33858;SDS011;20156;47.486;12.074;2023-06-01T02:26:29;6.28;;;5.60;;
33858;SDS011;20156;47.486;12.074;2023-06-01T02:28:55;7.00;;;6.30;;
33858;SDS011;20156;47.486;12.074;2023-06-01T02:31:21;9.52;;;6.50;;
33858;SDS011;20156;47.486;12.074;2023-06-01T02:33:46;6.13;;;5.53;;
33858;SDS011;20156;47.486;12.074;2023-06-01T02:36:12;8.23;;;6.32;;
33858;SDS011;20156;47.486;12.074;2023-06-01T02:38:37;7.30;;;5.90;;
33858;SDS011;20156;47.486;12.074;2023-06-01T02:41:03;5.38;;;4.88;;
33858;SDS011;20156;47.486;12.074;2023-06-01T02:43:28;6.32;;;5.57;;
33858;SDS011;20156;47.486;12.074;2023-06-01T02:45:54;7.68;;;5.70;;
33858;SDS011;20156;47.486;12.074;2023-06-01T02:48:20;7.68;;;6.03;;
33858;SDS011;20156;47.486;12.074;2023-06-01T02:50:45;7.45;;;6.15;;
33858;SDS011;20156;47.486;12.074;2023-06-01T02:53:11;8.40;;;6.30;;
33858;SDS011;20156;47.486;12.074;2023-06-01T02:55:36;7.70;;;6.72;;
33858;SDS011;20156;47.486;12.074;2023-06-01T02:58:01;7.60;;;6.25;;
33858;SDS011;20156;47.486;12.074;2023-06-01T03:00:27;7.68;;;6.97;;
33858;SDS011;20156;47.486;12.074;2023-06-01T03:02:53;6.80;;;6.10;;
33858;SDS011;20156;47.486;12.074;2023-06-01T03:05:18;8.50;;;6.75;;
33858;SDS011;20156;47.486;12.074;2023-06-01T03:07:46;8.88;;;6.68;;
33858;SDS011;20156;47.486;12.074;2023-06-01T03:10:12;6.90;;;5.93;;
33858;SDS011;20156;47.486;12.074;2023-06-01T03:12:38;6.15;;;5.55;;
33858;SDS011;20156;47.486;12.074;2023-06-01T03:15:04;6.57;;;5.75;;
33858;SDS011;20156;47.486;12.074;2023-06-01T03:17:31;7.82;;;7.03;;
33858;SDS011;20156;47.486;12.074;2023-06-01T03:19:58;6.63;;;5.93;;
33858;SDS011;20156;47.486;12.074;2023-06-01T03:22:23;6.45;;;5.78;;
33858;SDS011;20156;47.486;12.074;2023-06-01T03:24:49;6.32;;;5.65;;
33858;SDS011;20156;47.486;12.074;2023-06-01T03:27:18;6.70;;;5.93;;
33858;SDS011;20156;47.486;12.074;2023-06-01T03:29:44;6.38;;;5.78;;
33858;SDS011;20156;47.486;12.074;2023-06-01T03:32:10;6.40;;;5.60;;
33858;SDS011;20156;47.486;12.074;2023-06-01T03:34:36;6.30;;;5.70;;
33858;SDS011;20156;47.486;12.074;2023-06-01T03:37:05;6.85;;;6.10;;
33858;SDS011;20156;47.486;12.074;2023-06-01T03:39:31;7.20;;;6.50;;
33858;SDS011;20156;47.486;12.074;2023-06-01T03:41:58;7.00;;;6.30;;
33858;SDS011;20156;47.486;12.074;2023-06-01T03:44:24;6.60;;;5.80;;
33858;SDS011;20156;47.486;12.074;2023-06-01T03:46:50;7.38;;;6.15;;
33858;SDS011;20156;47.486;12.074;2023-06-01T03:49:15;6.90;;;6.13;;
33858;SDS011;20156;47.486;12.074;2023-06-01T03:51:41;6.82;;;6.07;;
33858;SDS011;20156;47.486;12.074;2023-06-01T03:54:06;6.93;;;6.22;;
33858;SDS011;20156;47.486;12.074;2023-06-01T03:56:32;8.93;;;6.35;;
33858;SDS011;20156;47.486;12.074;2023-06-01T03:58:57;6.45;;;5.50;;
33858;SDS011;20156;47.486;12.074;2023-06-01T04:01:23;8.63;;;6.28;;
33858;SDS011;20156;47.486;12.074;2023-06-01T04:03:48;7.53;;;6.50;;
33858;SDS011;20156;47.486;12.074;2023-06-01T04:06:14;7.15;;;5.97;;
33858;SDS011;20156;47.486;12.074;2023-06-01T04:08:42;8.95;;;6.90;;
33858;SDS011;20156;47.486;12.074;2023-06-01T04:11:17;7.90;;;6.95;;
33858;SDS011;20156;47.486;12.074;2023-06-01T04:13:46;11.23;;;7.45;;
33858;SDS011;20156;47.486;12.074;2023-06-01T04:16:11;8.02;;;7.22;;
33858;SDS011;20156;47.486;12.074;2023-06-01T04:18:36;6.93;;;6.22;;
33858;SDS011;20156;47.486;12.074;2023-06-01T04:21:02;7.88;;;6.80;;
33858;SDS011;20156;47.486;12.074;2023-06-01T04:23:28;8.48;;;6.60;;
33858;SDS011;20156;47.486;12.074;2023-06-01T04:25:53;7.28;;;6.35;;
33858;SDS011;20156;47.486;12.074;2023-06-01T04:28:23;7.25;;;6.53;;
33858;SDS011;20156;47.486;12.074;2023-06-01T04:30:49;8.52;;;7.40;;
33858;SDS011;20156;47.486;12.074;2023-06-01T04:33:16;7.07;;;6.45;;
33858;SDS011;20156;47.486;12.074;2023-06-01T04:35:42;7.82;;;6.90;;
33858;SDS011;20156;47.486;12.074;2023-06-01T04:38:08;8.88;;;7.32;;
33858;SDS011;20156;47.486;12.074;2023-06-01T04:40:34;8.68;;;6.68;;
33858;SDS011;20156;47.486;12.074;2023-06-01T04:42:59;8.73;;;6.40;;
33858;SDS011;20156;47.486;12.074;2023-06-01T04:45:28;9.80;;;7.38;;
33858;SDS011;20156;47.486;12.074;2023-06-01T04:47:55;8.23;;;7.43;;
33858;SDS011;20156;47.486;12.074;2023-06-01T04:50:22;8.30;;;7.25;;
33858;SDS011;20156;47.486;12.074;2023-06-01T04:52:48;7.60;;;6.65;;
33858;SDS011;20156;47.486;12.074;2023-06-01T04:55:15;11.60;;;8.18;;
33858;SDS011;20156;47.486;12.074;2023-06-01T04:57:41;8.02;;;7.10;;
33858;SDS011;20156;47.486;12.074;2023-06-01T05:00:10;7.00;;;6.30;;
33858;SDS011;20156;47.486;12.074;2023-06-01T05:02:38;7.97;;;6.78;;
33858;SDS011;20156;47.486;12.074;2023-06-01T05:05:08;8.13;;;6.22;;
33858;SDS011;20156;47.486;12.074;2023-06-01T05:07:34;7.40;;;6.18;;
33858;SDS011;20156;47.486;12.074;2023-06-01T05:10:01;7.10;;;6.40;;
33858;SDS011;20156;47.486;12.074;2023-06-01T05:12:31;7.63;;;6.35;;
33858;SDS011;20156;47.486;12.074;2023-06-01T05:15:00;10.18;;;7.20;;
33858;SDS011;20156;47.486;12.074;2023-06-01T05:17:27;7.97;;;6.20;;
33858;SDS011;20156;47.486;12.074;2023-06-01T05:19:53;7.90;;;6.78;;
33858;SDS011;20156;47.486;12.074;2023-06-01T05:22:18;7.55;;;6.80;;
33858;SDS011;20156;47.486;12.074;2023-06-01T05:24:43;6.82;;;6.13;;
33858;SDS011;20156;47.486;12.074;2023-06-01T05:27:09;8.48;;;7.30;;
33858;SDS011;20156;47.486;12.074;2023-06-01T05:29:34;7.20;;;6.57;;
33858;SDS011;20156;47.486;12.074;2023-06-01T05:32:00;10.10;;;7.45;;
33858;SDS011;20156;47.486;12.074;2023-06-01T05:34:25;8.82;;;7.30;;
33858;SDS011;20156;47.486;12.074;2023-06-01T05:36:51;7.78;;;6.97;;
33858;SDS011;20156;47.486;12.074;2023-06-01T05:39:16;8.18;;;6.88;;
33858;SDS011;20156;47.486;12.074;2023-06-01T05:41:42;8.32;;;7.53;;
33858;SDS011;20156;47.486;12.074;2023-06-01T05:44:07;7.80;;;6.88;;
33858;SDS011;20156;47.486;12.074;2023-06-01T05:46:32;8.13;;;6.85;;
33858;SDS011;20156;47.486;12.074;2023-06-01T05:48:58;7.72;;;6.97;;
33858;SDS011;20156;47.486;12.074;2023-06-01T05:51:23;8.05;;;7.25;;
33858;SDS011;20156;47.486;12.074;2023-06-01T05:53:49;10.57;;;8.02;;
33858;SDS011;20156;47.486;12.074;2023-06-01T05:56:14;7.95;;;6.90;;
33858;SDS011;20156;47.486;12.074;2023-06-01T05:58:41;8.13;;;7.32;;
33858;SDS011;20156;47.486;12.074;2023-06-01T06:01:07;8.98;;;7.18;;
33858;SDS011;20156;47.486;12.074;2023-06-01T06:03:32;7.57;;;6.80;;
33858;SDS011;20156;47.486;12.074;2023-06-01T06:05:58;8.75;;;6.95;;
33858;SDS011;20156;47.486;12.074;2023-06-01T06:08:23;9.23;;;6.70;;
33858;SDS011;20156;47.486;12.074;2023-06-01T06:10:49;9.32;;;7.05;;
33858;SDS011;20156;47.486;12.074;2023-06-01T06:13:14;8.85;;;7.95;;
33858;SDS011;20156;47.486;12.074;2023-06-01T06:15:40;7.90;;;7.18;;
33858;SDS011;20156;47.486;12.074;2023-06-01T06:18:05;8.05;;;6.82;;
33858;SDS011;20156;47.486;12.074;2023-06-01T06:20:31;10.63;;;7.88;;
33858;SDS011;20156;47.486;12.074;2023-06-01T06:22:56;8.45;;;7.60;;
33858;SDS011;20156;47.486;12.074;2023-06-01T06:25:21;9.07;;;7.80;;
33858;SDS011;20156;47.486;12.074;2023-06-01T06:27:48;9.70;;;7.85;;
33858;SDS011;20156;47.486;12.074;2023-06-01T06:30:13;9.13;;;7.90;;
33858;SDS011;20156;47.486;12.074;2023-06-01T06:32:40;10.77;;;8.55;;
33858;SDS011;20156;47.486;12.074;2023-06-01T06:35:05;10.18;;;9.02;;
33858;SDS011;20156;47.486;12.074;2023-06-01T06:37:31;10.40;;;8.32;;
33858;SDS011;20156;47.486;12.074;2023-06-01T06:39:56;9.38;;;8.38;;
33858;SDS011;20156;47.486;12.074;2023-06-01T06:42:22;11.07;;;9.48;;
33858;SDS011;20156;47.486;12.074;2023-06-01T06:44:48;8.48;;;7.55;;
33858;SDS011;20156;47.486;12.074;2023-06-01T06:47:13;10.80;;;9.05;;
33858;SDS011;20156;47.486;12.074;2023-06-01T06:49:43;11.48;;;8.95;;
33858;SDS011;20156;47.486;12.074;2023-06-01T06:52:09;9.70;;;8.43;;
33858;SDS011;20156;47.486;12.074;2023-06-01T06:54:35;10.20;;;9.13;;
33858;SDS011;20156;47.486;12.074;2023-06-01T06:57:00;12.77;;;9.00;;
33858;SDS011;20156;47.486;12.074;2023-06-01T06:59:26;10.30;;;8.48;;
33858;SDS011;20156;47.486;12.074;2023-06-01T07:01:51;9.00;;;8.10;;
33858;SDS011;20156;47.486;12.074;2023-06-01T07:04:16;9.30;;;8.13;;
33858;SDS011;20156;47.486;12.074;2023-06-01T07:06:42;10.13;;;8.65;;
33858;SDS011;20156;47.486;12.074;2023-06-01T07:09:07;11.70;;;9.55;;
33858;SDS011;20156;47.486;12.074;2023-06-01T07:11:34;11.68;;;9.60;;
33858;SDS011;20156;47.486;12.074;2023-06-01T07:13:59;11.30;;;8.88;;
33858;SDS011;20156;47.486;12.074;2023-06-01T07:16:25;10.00;;;8.95;;
33858;SDS011;20156;47.486;12.074;2023-06-01T07:18:51;10.93;;;9.57;;
33858;SDS011;20156;47.486;12.074;2023-06-01T07:21:17;16.77;;;11.63;;
33858;SDS011;20156;47.486;12.074;2023-06-01T07:23:42;11.63;;;9.88;;
33858;SDS011;20156;47.486;12.074;2023-06-01T07:26:10;14.20;;;10.27;;
33858;SDS011;20156;47.486;12.074;2023-06-01T07:28:36;11.60;;;10.40;;
33858;SDS011;20156;47.486;12.074;2023-06-01T07:31:02;11.68;;;9.93;;
33858;SDS011;20156;47.486;12.074;2023-06-01T07:33:28;12.73;;;9.15;;
33858;SDS011;20156;47.486;12.074;2023-06-01T07:35:54;9.43;;;7.80;;
33858;SDS011;20156;47.486;12.074;2023-06-01T07:38:21;11.00;;;8.90;;
33858;SDS011;20156;47.486;12.074;2023-06-01T07:40:47;9.65;;;8.32;;
33858;SDS011;20156;47.486;12.074;2023-06-01T07:43:13;9.25;;;7.78;;
33858;SDS011;20156;47.486;12.074;2023-06-01T07:45:39;8.95;;;7.35;;
33858;SDS011;20156;47.486;12.074;2023-06-01T07:48:05;8.13;;;7.13;;
33858;SDS011;20156;47.486;12.074;2023-06-01T07:50:31;7.85;;;6.70;;
33858;SDS011;20156;47.486;12.074;2023-06-01T07:52:57;7.38;;;6.68;;
33858;SDS011;20156;47.486;12.074;2023-06-01T07:55:23;7.93;;;7.10;;
33858;SDS011;20156;47.486;12.074;2023-06-01T07:57:49;8.45;;;6.55;;
33858;SDS011;20156;47.486;12.074;2023-06-01T08:00:14;9.65;;;7.00;;
33858;SDS011;20156;47.486;12.074;2023-06-01T08:02:42;7.57;;;6.78;;
33858;SDS011;20156;47.486;12.074;2023-06-01T08:05:08;8.02;;;6.75;;
33858;SDS011;20156;47.486;12.074;2023-06-01T08:07:35;6.85;;;6.10;;
33858;SDS011;20156;47.486;12.074;2023-06-01T08:10:03;7.88;;;6.43;;
33858;SDS011;20156;47.486;12.074;2023-06-01T08:12:30;7.82;;;6.35;;
33858;SDS011;20156;47.486;12.074;2023-06-01T08:14:56;10.20;;;9.07;;
33858;SDS011;20156;47.486;12.074;2023-06-01T08:17:22;9.63;;;7.60;;
33858;SDS011;20156;47.486;12.074;2023-06-01T08:19:48;8.15;;;7.00;;
33858;SDS011;20156;47.486;12.074;2023-06-01T08:22:13;7.78;;;6.93;;
33858;SDS011;20156;47.486;12.074;2023-06-01T08:24:39;10.40;;;6.90;;
33858;SDS011;20156;47.486;12.074;2023-06-01T08:27:20;9.43;;;7.40;;
33858;SDS011;20156;47.486;12.074;2023-06-01T08:29:47;7.55;;;6.65;;
33858;SDS011;20156;47.486;12.074;2023-06-01T08:32:13;7.95;;;6.60;;
33858;SDS011;20156;47.486;12.074;2023-06-01T08:34:39;9.55;;;7.07;;
33858;SDS011;20156;47.486;12.074;2023-06-01T08:37:05;8.48;;;7.07;;
33858;SDS011;20156;47.486;12.074;2023-06-01T08:39:31;7.53;;;6.82;;
33858;SDS011;20156;47.486;12.074;2023-06-01T08:44:33;9.88;;;7.00;;
33858;SDS011;20156;47.486;12.074;2023-06-01T08:47:02;8.20;;;7.40;;
33858;SDS011;20156;47.486;12.074;2023-06-01T08:49:29;9.15;;;6.88;;
33858;SDS011;20156;47.486;12.074;2023-06-01T08:51:55;8.18;;;7.20;;
33858;SDS011;20156;47.486;12.074;2023-06-01T08:54:22;9.77;;;7.78;;
33858;SDS011;20156;47.486;12.074;2023-06-01T08:56:48;12.23;;;8.38;;
33858;SDS011;20156;47.486;12.074;2023-06-01T08:59:13;12.18;;;8.07;;
33858;SDS011;20156;47.486;12.074;2023-06-01T09:01:39;10.27;;;8.00;;
33858;SDS011;20156;47.486;12.074;2023-06-01T09:04:05;9.57;;;7.63;;
33858;SDS011;20156;47.486;12.074;2023-06-01T09:06:32;8.50;;;6.95;;
33858;SDS011;20156;47.486;12.074;2023-06-01T09:08:58;6.95;;;6.25;;
33858;SDS011;20156;47.486;12.074;2023-06-01T09:11:25;10.35;;;6.50;;
33858;SDS011;20156;47.486;12.074;2023-06-01T09:13:51;6.43;;;5.82;;
33858;SDS011;20156;47.486;12.074;2023-06-01T09:16:16;6.88;;;5.93;;
33858;SDS011;20156;47.486;12.074;2023-06-01T09:18:54;6.82;;;6.13;;
33858;SDS011;20156;47.486;12.074;2023-06-01T09:21:20;9.68;;;7.03;;
33858;SDS011;20156;47.486;12.074;2023-06-01T09:23:46;7.38;;;6.22;;
33858;SDS011;20156;47.486;12.074;2023-06-01T09:26:13;7.95;;;6.95;;
33858;SDS011;20156;47.486;12.074;2023-06-01T09:34:06;8.10;;;6.90;;
33858;SDS011;20156;47.486;12.074;2023-06-01T09:36:33;8.10;;;6.97;;
33858;SDS011;20156;47.486;12.074;2023-06-01T09:39:08;6.78;;;6.10;;
33858;SDS011;20156;47.486;12.074;2023-06-01T09:41:45;8.02;;;6.85;;
33858;SDS011;20156;47.486;12.074;2023-06-01T09:44:28;7.57;;;6.20;;
33858;SDS011;20156;47.486;12.074;2023-06-01T09:46:55;6.68;;;5.78;;
33858;SDS011;20156;47.486;12.074;2023-06-01T09:49:24;11.00;;;7.05;;
33858;SDS011;20156;47.486;12.074;2023-06-01T09:51:52;6.60;;;5.90;;
33858;SDS011;20156;47.486;12.074;2023-06-01T09:54:49;9.20;;;6.47;;
33858;SDS011;20156;47.486;12.074;2023-06-01T09:57:22;9.80;;;6.25;;
33858;SDS011;20156;47.486;12.074;2023-06-01T09:59:49;7.25;;;6.55;;
33858;SDS011;20156;47.486;12.074;2023-06-01T10:02:16;7.40;;;6.53;;
33858;SDS011;20156;47.486;12.074;2023-06-01T10:05:01;8.05;;;6.30;;
33858;SDS011;20156;47.486;12.074;2023-06-01T10:07:28;7.65;;;6.40;;
33858;SDS011;20156;47.486;12.074;2023-06-01T10:09:57;7.82;;;5.10;;
33858;SDS011;20156;47.486;12.074;2023-06-01T10:12:26;5.90;;;5.35;;
33858;SDS011;20156;47.486;12.074;2023-06-01T10:14:53;6.15;;;4.88;;
33858;SDS011;20156;47.486;12.074;2023-06-01T10:17:20;5.65;;;4.97;;
33858;SDS011;20156;47.486;12.074;2023-06-01T10:19:46;5.35;;;4.85;;
33858;SDS011;20156;47.486;12.074;2023-06-01T10:22:12;5.38;;;4.60;;
33858;SDS011;20156;47.486;12.074;2023-06-01T10:24:37;5.93;;;5.32;;
33858;SDS011;20156;47.486;12.074;2023-06-01T10:29:31;5.57;;;5.07;;
33858;SDS011;20156;47.486;12.074;2023-06-01T10:31:58;5.15;;;4.68;;
33858;SDS011;20156;47.486;12.074;2023-06-01T10:34:42;6.20;;;4.82;;
33858;SDS011;20156;47.486;12.074;2023-06-01T10:37:12;7.38;;;5.20;;
33858;SDS011;20156;47.486;12.074;2023-06-01T10:39:39;5.38;;;4.88;;
33858;SDS011;20156;47.486;12.074;2023-06-01T10:47:50;5.40;;;4.90;;
33858;SDS011;20156;47.486;12.074;2023-06-01T10:52:35;5.78;;;5.18;;
33858;SDS011;20156;47.486;12.074;2023-06-01T10:57:32;5.78;;;4.47;;
33858;SDS011;20156;47.486;12.074;2023-06-01T11:02:58;5.82;;;5.13;;
33858;SDS011;20156;47.486;12.074;2023-06-01T11:05:47;7.50;;;5.45;;
33858;SDS011;20156;47.486;12.074;2023-06-01T11:13:19;6.00;;;4.90;;
33858;SDS011;20156;47.486;12.074;2023-06-01T11:18:58;5.88;;;5.30;;
33858;SDS011;20156;47.486;12.074;2023-06-01T11:21:26;6.15;;;5.45;;
33858;SDS011;20156;47.486;12.074;2023-06-01T11:24:17;6.70;;;4.63;;
33858;SDS011;20156;47.486;12.074;2023-06-01T11:26:44;6.90;;;5.57;;
33858;SDS011;20156;47.486;12.074;2023-06-01T11:29:18;5.90;;;4.80;;
33858;SDS011;20156;47.486;12.074;2023-06-01T11:31:51;8.20;;;5.63;;
33858;SDS011;20156;47.486;12.074;2023-06-01T11:34:18;6.50;;;4.82;;
33858;SDS011;20156;47.486;12.074;2023-06-01T11:36:53;5.43;;;4.93;;
33858;SDS011;20156;47.486;12.074;2023-06-01T11:39:21;5.78;;;5.00;;
33858;SDS011;20156;47.486;12.074;2023-06-01T11:41:48;6.78;;;4.88;;
33858;SDS011;20156;47.486;12.074;2023-06-01T11:44:27;5.50;;;5.00;;
33858;SDS011;20156;47.486;12.074;2023-06-01T11:46:53;5.43;;;4.93;;
33858;SDS011;20156;47.486;12.074;2023-06-01T11:49:21;5.60;;;5.00;;
33858;SDS011;20156;47.486;12.074;2023-06-01T11:51:47;5.40;;;4.82;;
33858;SDS011;20156;47.486;12.074;2023-06-01T11:54:13;4.97;;;4.47;;
33858;SDS011;20156;47.486;12.074;2023-06-01T11:56:38;9.00;;;5.40;;
33858;SDS011;20156;47.486;12.074;2023-06-01T11:59:07;5.13;;;4.63;;
33858;SDS011;20156;47.486;12.074;2023-06-01T12:01:44;5.55;;;4.70;;
33858;SDS011;20156;47.486;12.074;2023-06-01T12:06:39;5.25;;;4.75;;
33858;SDS011;20156;47.486;12.074;2023-06-01T12:09:05;5.75;;;4.75;;
33858;SDS011;20156;47.486;12.074;2023-06-01T12:11:31;6.00;;;4.75;;
33858;SDS011;20156;47.486;12.074;2023-06-01T12:13:57;8.25;;;4.68;;
33858;SDS011;20156;47.486;12.074;2023-06-01T12:16:23;5.78;;;5.25;;
33858;SDS011;20156;47.486;12.074;2023-06-01T12:18:50;7.30;;;5.20;;
33858;SDS011;20156;47.486;12.074;2023-06-01T12:21:16;5.68;;;5.10;;
33858;SDS011;20156;47.486;12.074;2023-06-01T12:23:42;8.18;;;5.00;;
33858;SDS011;20156;47.486;12.074;2023-06-01T12:26:13;5.45;;;4.95;;
33858;SDS011;20156;47.486;12.074;2023-06-01T12:28:52;5.90;;;5.32;;
33858;SDS011;20156;47.486;12.074;2023-06-01T12:31:20;5.55;;;4.93;;
33858;SDS011;20156;47.486;12.074;2023-06-01T12:33:46;7.28;;;5.63;;
33858;SDS011;20156;47.486;12.074;2023-06-01T12:36:32;6.47;;;5.00;;
33858;SDS011;20156;47.486;12.074;2023-06-01T12:39:00;5.85;;;5.13;;
33858;SDS011;20156;47.486;12.074;2023-06-01T12:41:28;7.90;;;4.90;;
33858;SDS011;20156;47.486;12.074;2023-06-01T12:43:54;7.40;;;5.68;;
33858;SDS011;20156;47.486;12.074;2023-06-01T12:48:47;6.55;;;5.38;;
33858;SDS011;20156;47.486;12.074;2023-06-01T12:51:13;6.57;;;4.80;;
33858;SDS011;20156;47.486;12.074;2023-06-01T12:53:38;7.20;;;4.90;;
33858;SDS011;20156;47.486;12.074;2023-06-01T12:56:04;5.07;;;4.60;;
33858;SDS011;20156;47.486;12.074;2023-06-01T12:58:31;6.53;;;5.28;;
33858;SDS011;20156;47.486;12.074;2023-06-01T13:00:57;6.63;;;5.43;;
33858;SDS011;20156;47.486;12.074;2023-06-01T13:03:22;6.32;;;5.50;;
33858;SDS011;20156;47.486;12.074;2023-06-01T13:05:48;6.40;;;5.70;;
33858;SDS011;20156;47.486;12.074;2023-06-01T13:08:18;6.35;;;5.40;;
33858;SDS011;20156;47.486;12.074;2023-06-01T13:10:44;5.93;;;5.30;;
33858;SDS011;20156;47.486;12.074;2023-06-01T13:13:10;6.85;;;5.40;;
33858;SDS011;20156;47.486;12.074;2023-06-01T13:15:44;6.10;;;5.38;;
33858;SDS011;20156;47.486;12.074;2023-06-01T13:18:10;5.80;;;5.20;;
33858;SDS011;20156;47.486;12.074;2023-06-01T13:20:36;8.07;;;5.65;;
33858;SDS011;20156;47.486;12.074;2023-06-01T13:23:02;6.78;;;5.40;;
33858;SDS011;20156;47.486;12.074;2023-06-01T13:25:29;5.68;;;5.10;;
33858;SDS011;20156;47.486;12.074;2023-06-01T13:27:54;6.20;;;5.53;;
33858;SDS011;20156;47.486;12.074;2023-06-01T13:30:21;8.52;;;5.75;;
33858;SDS011;20156;47.486;12.074;2023-06-01T13:32:47;7.07;;;5.50;;
33858;SDS011;20156;47.486;12.074;2023-06-01T13:35:13;6.35;;;5.55;;
33858;SDS011;20156;47.486;12.074;2023-06-01T13:37:38;7.55;;;6.00;;
33858;SDS011;20156;47.486;12.074;2023-06-01T13:40:04;9.13;;;5.65;;
33858;SDS011;20156;47.486;12.074;2023-06-01T13:42:30;6.90;;;5.97;;
33858;SDS011;20156;47.486;12.074;2023-06-01T13:44:57;6.30;;;5.55;;
33858;SDS011;20156;47.486;12.074;2023-06-01T13:47:23;5.97;;;5.38;;
33858;SDS011;20156;47.486;12.074;2023-06-01T13:49:48;11.13;;;5.63;;
33858;SDS011;20156;47.486;12.074;2023-06-01T13:52:13;8.60;;;5.80;;
33858;SDS011;20156;47.486;12.074;2023-06-01T13:54:39;8.10;;;5.57;;
33858;SDS011;20156;47.486;12.074;2023-06-01T13:57:04;6.63;;;5.55;;
33858;SDS011;20156;47.486;12.074;2023-06-01T13:59:33;6.63;;;5.65;;
33858;SDS011;20156;47.486;12.074;2023-06-01T14:02:00;5.95;;;5.32;;
33858;SDS011;20156;47.486;12.074;2023-06-01T14:04:26;5.82;;;4.93;;
33858;SDS011;20156;47.486;12.074;2023-06-01T14:06:52;6.00;;;5.40;;
33858;SDS011;20156;47.486;12.074;2023-06-01T14:09:18;5.55;;;5.05;;
33858;SDS011;20156;47.486;12.074;2023-06-01T14:11:43;10.23;;;6.05;;
33858;SDS011;20156;47.486;12.074;2023-06-01T14:14:10;6.35;;;5.10;;
33858;SDS011;20156;47.486;12.074;2023-06-01T14:16:35;6.40;;;5.22;;
33858;SDS011;20156;47.486;12.074;2023-06-01T14:19:01;7.22;;;5.15;;
33858;SDS011;20156;47.486;12.074;2023-06-01T14:21:28;6.32;;;5.43;;
33858;SDS011;20156;47.486;12.074;2023-06-01T14:23:55;7.60;;;5.50;;
33858;SDS011;20156;47.486;12.074;2023-06-01T14:26:21;6.05;;;5.55;;
33858;SDS011;20156;47.486;12.074;2023-06-01T14:28:46;6.05;;;5.15;;
33858;SDS011;20156;47.486;12.074;2023-06-01T14:31:12;5.57;;;4.95;;
33858;SDS011;20156;47.486;12.074;2023-06-01T14:33:37;6.68;;;5.03;;
33858;SDS011;20156;47.486;12.074;2023-06-01T14:36:03;8.90;;;5.78;;
33858;SDS011;20156;47.486;12.074;2023-06-01T14:38:29;6.80;;;6.10;;
33858;SDS011;20156;47.486;12.074;2023-06-01T14:40:55;5.68;;;5.07;;
33858;SDS011;20156;47.486;12.074;2023-06-01T14:43:20;5.70;;;5.10;;
33858;SDS011;20156;47.486;12.074;2023-06-01T14:45:46;6.25;;;5.32;;
33858;SDS011;20156;47.486;12.074;2023-06-01T14:48:11;7.13;;;5.53;;
33858;SDS011;20156;47.486;12.074;2023-06-01T14:50:37;6.18;;;4.95;;
33858;SDS011;20156;47.486;12.074;2023-06-01T14:53:02;7.18;;;5.50;;
33858;SDS011;20156;47.486;12.074;2023-06-01T14:55:28;6.10;;;5.20;;
33858;SDS011;20156;47.486;12.074;2023-06-01T14:57:54;6.10;;;5.53;;
33858;SDS011;20156;47.486;12.074;2023-06-01T15:00:19;7.72;;;5.20;;
33858;SDS011;20156;47.486;12.074;2023-06-01T15:02:46;6.30;;;5.32;;
33858;SDS011;20156;47.486;12.074;2023-06-01T15:05:12;6.72;;;5.32;;
33858;SDS011;20156;47.486;12.074;2023-06-01T15:07:37;6.05;;;5.45;;
33858;SDS011;20156;47.486;12.074;2023-06-01T15:10:03;5.38;;;4.80;;
33858;SDS011;20156;47.486;12.074;2023-06-01T15:12:29;6.47;;;5.60;;
33858;SDS011;20156;47.486;12.074;2023-06-01T15:14:55;5.63;;;5.05;;
33858;SDS011;20156;47.486;12.074;2023-06-01T15:17:20;5.53;;;5.03;;
33858;SDS011;20156;47.486;12.074;2023-06-01T15:19:46;6.10;;;5.15;;
33858;SDS011;20156;47.486;12.074;2023-06-01T15:22:12;6.13;;;5.18;;
33858;SDS011;20156;47.486;12.074;2023-06-01T15:24:38;5.38;;;4.82;;